createdAt,value
2023-02-11T11:06:32.414Z,0.91
2023-02-11T11:11:51.780Z,2.77
2023-02-11T11:16:54.616Z,2.49
2023-02-11T11:21:57.229Z,2.90
2023-02-11T11:27:01.797Z,3.06
2023-02-11T11:32:33.643Z,2.29
2023-02-11T11:37:36.999Z,3.64
2023-02-11T11:42:40.113Z,4.80
2023-02-11T11:47:44.314Z,4.52
2023-02-11T11:53:04.602Z,5.00
2023-02-11T11:58:14.382Z,3.78
2023-02-11T12:03:38.457Z,4.17
2023-02-11T12:08:40.059Z,3.68
2023-02-11T12:14:02.990Z,4.27
2023-02-11T12:19:29.000Z,5.30
2023-02-11T12:24:33.240Z,5.87
2023-02-11T12:30:01.433Z,4.76
2023-02-11T12:35:28.244Z,5.21
2023-02-11T12:40:55.241Z,5.03
2023-02-11T12:46:24.769Z,4.32
2023-02-11T12:51:56.606Z,5.24
2023-02-11T12:57:08.452Z,5.96
2023-02-11T13:02:24.592Z,4.76
2023-02-11T13:07:39.388Z,5.07
2023-02-11T13:13:04.503Z,4.66
2023-02-11T13:18:31.920Z,5.04
2023-02-11T13:23:36.238Z,6.30
2023-02-11T13:28:41.463Z,5.62
2023-02-11T13:33:44.403Z,5.56
2023-02-11T13:38:59.828Z,5.59
2023-02-11T13:44:23.653Z,5.77
2023-02-11T13:49:28.028Z,5.98
2023-02-11T13:54:34.457Z,6.64
2023-02-11T13:59:36.013Z,6.79
2023-02-11T14:04:57.346Z,6.11
2023-02-11T14:09:59.361Z,5.23
2023-02-11T14:15:22.684Z,7.06
2023-02-11T14:20:42.028Z,6.73
2023-02-11T14:25:50.708Z,6.68
2023-02-11T14:31:07.817Z,5.59
2023-02-11T14:36:18.379Z,6.79
2023-02-11T14:41:24.500Z,6.57
2023-02-11T14:46:29.937Z,5.44
2023-02-11T14:51:36.441Z,6.42
2023-02-11T14:56:38.288Z,5.42
2023-02-11T15:01:48.968Z,5.78
2023-02-11T15:06:51.285Z,6.88
2023-02-11T15:11:54.295Z,6.13
2023-02-11T15:17:03.729Z,5.82
2023-02-11T15:22:13.911Z,6.29
2023-02-11T15:27:16.380Z,7.34
2023-02-11T15:32:19.368Z,6.03
2023-02-11T15:37:22.855Z,6.50
2023-02-11T15:42:27.103Z,7.07
2023-02-11T15:47:29.110Z,7.53
2023-02-11T15:52:31.710Z,7.90
2023-02-11T15:57:34.140Z,7.11
2023-02-11T16:02:38.701Z,6.92
2023-02-11T16:07:44.714Z,7.20
2023-02-11T16:13:04.596Z,7.68
2023-02-11T16:18:38.843Z,7.98
2023-02-11T16:23:44.789Z,7.82
2023-02-11T16:28:46.605Z,8.65
2023-02-11T16:33:48.283Z,7.44
2023-02-11T16:38:52.755Z,8.28
2023-02-11T16:43:58.318Z,7.89
2023-02-11T16:49:26.118Z,8.57
2023-02-11T16:54:29.823Z,7.05
2023-02-11T16:59:31.508Z,6.94
2023-02-11T17:04:34.450Z,6.38
2023-02-11T17:09:36.133Z,6.47
2023-02-11T17:14:37.740Z,7.36
2023-02-11T17:19:40.182Z,7.88
2023-02-11T17:24:41.859Z,7.39
2023-02-11T17:29:43.758Z,7.77
2023-02-11T17:34:45.506Z,7.36
2023-02-11T17:39:49.542Z,7.49
2023-02-11T17:44:51.163Z,7.41
2023-02-11T17:49:52.821Z,7.54
2023-02-11T17:54:55.336Z,7.99
2023-02-11T17:59:57.287Z,7.56
2023-02-11T18:04:59.009Z,7.27
2023-02-11T18:10:00.841Z,5.75
2023-02-11T18:15:02.709Z,6.91
2023-02-11T18:20:05.112Z,6.78
2023-02-11T18:25:07.876Z,6.13
2023-02-11T18:30:15.208Z,6.66
2023-02-11T18:35:17.066Z,6.78
2023-02-11T18:40:18.982Z,5.50
2023-02-11T18:45:20.783Z,6.23
2023-02-11T18:50:22.703Z,6.71
2023-02-11T18:55:25.947Z,6.45
2023-02-11T19:00:30.262Z,6.48
2023-02-11T19:05:33.546Z,7.77
2023-02-11T19:10:35.522Z,6.29
2023-02-11T19:15:44.530Z,6.29
2023-02-11T19:20:46.614Z,6.60
2023-02-11T19:25:48.812Z,7.11
2023-02-11T19:30:50.561Z,6.80
2023-02-11T19:35:52.539Z,6.62
2023-02-11T19:40:57.720Z,7.15
2023-02-11T19:46:02.112Z,6.72
2023-02-11T19:51:13.046Z,6.68
2023-02-11T19:56:15.809Z,6.33
2023-02-11T20:01:19.910Z,6.06
2023-02-11T20:06:24.684Z,6.16
2023-02-11T20:11:28.926Z,6.22
2023-02-11T20:16:46.778Z,6.84
2023-02-11T20:21:52.836Z,6.01
2023-02-11T20:26:56.058Z,6.35
2023-02-11T20:31:58.166Z,6.15
2023-02-11T20:37:00.058Z,5.68
2023-02-11T20:42:01.798Z,6.12
2023-02-11T20:47:03.519Z,6.35
2023-02-11T20:52:05.210Z,5.60
2023-02-11T20:57:07.482Z,5.46
2023-02-11T21:02:10.281Z,4.94
2023-02-11T21:07:12.052Z,5.03
2023-02-11T21:12:13.831Z,5.26
2023-02-11T21:17:15.555Z,5.20
2023-02-11T21:22:17.276Z,4.85
2023-02-11T21:27:19.121Z,5.21
2023-02-11T21:32:20.801Z,5.80
2023-02-11T21:37:23.274Z,6.00
2023-02-11T21:42:24.979Z,5.50
2023-02-11T21:47:26.636Z,7.17
2023-02-11T21:52:28.260Z,5.71
2023-02-11T21:57:31.024Z,5.95
2023-02-11T22:02:32.680Z,6.86
2023-02-11T22:07:36.429Z,7.86
2023-02-11T22:12:38.026Z,5.49
2023-02-11T22:17:39.850Z,8.25
2023-02-11T22:22:41.485Z,8.07
2023-02-11T22:27:43.506Z,8.26
2023-02-11T22:32:45.266Z,7.54
2023-02-11T22:37:47.029Z,7.80
2023-02-11T22:42:48.876Z,7.66
2023-02-11T22:47:50.522Z,7.35
2023-02-11T22:52:52.268Z,7.23
2023-02-11T22:57:53.914Z,6.98
2023-02-11T23:02:56.201Z,7.11
2023-02-11T23:07:58.004Z,7.92
2023-02-11T23:12:59.734Z,6.16
2023-02-11T23:18:01.523Z,6.68
2023-02-11T23:23:03.757Z,7.17
2023-02-11T23:28:05.569Z,7.52
2023-02-11T23:33:07.303Z,5.40
2023-02-11T23:38:09.108Z,6.24
2023-02-11T23:43:10.788Z,6.76
2023-02-11T23:48:12.468Z,8.08
2023-02-11T23:53:14.278Z,7.30
2023-02-11T23:58:16.803Z,7.21
